Lagoon City, Ontario

Past 24 Hour Conditions

Date / Time
(EDT)
Conditions Temp
(°F)
Humidity
(%)
Dew Point
(°F)
Wind
(mph)
Pressure
(inches)
Visibility
(miles)
25 October 2014
18:00 N/A 56 61 42 WNW 23 29.5 N/A
17:00 N/A 57   57 42 WNW 25 gust 31 29.5 N/A
16:00 N/A 57   68 46 W 23 29.5 N/A
15:00 N/A 56 72 47 WNW 20 gust 26 29.5 N/A
14:00 N/A 55 81 49 W 18 gust 26 29.6 N/A
13:00 N/A 55 82 49 W 23 29.6 N/A
12:00 N/A 55 84 50 WSW 12 29.6 N/A
11:00 N/A 54 82 49 SSW 19 29.6 N/A
10:00 N/A 52 87 48 SSW 18 29.6 N/A
9:00 N/A 51 86 47 S 14 29.7 N/A
8:00 N/A 51 87 48 SSW 14 29.7 N/A
7:00 N/A 52 84 47 SSW 12 29.7 N/A
6:00 N/A 52 83 47 SSW 12 29.8 N/A
5:00 N/A 52 83 47 SW 11 29.8 N/A
4:00 N/A 52 83 47 SW 9 29.8 N/A
3:00 N/A 53 82 47 WSW 9 29.8 N/A
2:00 N/A 53 83 47 WSW 10 29.9 N/A
1:00 N/A 51 84 47 WSW 7 29.9 N/A
00:00 N/A 51 76 44 WSW 7 29.9 N/A
24 October 2014
23:00 N/A 49   75 42 calm 29.9 N/A
22:00 N/A 50 68 40 WNW 3 29.9 N/A
21:00 N/A 50 63 38 WNW 7 29.9 N/A
20:00 N/A 50 64 39 NW 7 29.9 N/A
19:00 N/A 51 63 39 NNW 7 29.9 N/A
18:00 N/A 53 61 40 NW 9 29.9 N/A
N/A Not available
↑ Highest temperature
↓ Lowest temperature

If you require additional historical weather information, please visit Climate Data Online.

Date modified: